createdAt,value
2023-10-06T00:00:57.583Z,4.60
2023-10-06T00:01:59.341Z,4.55
2023-10-06T00:04:08.628Z,4.18
2023-10-06T00:05:14.628Z,4.47
2023-10-06T00:06:23.585Z,4.40
2023-10-06T00:07:26.135Z,3.90
2023-10-06T00:08:41.865Z,4.25
2023-10-06T00:09:44.870Z,4.20
2023-10-06T00:10:48.789Z,4.90
2023-10-06T00:11:51.673Z,4.40
2023-10-06T00:12:59.764Z,3.88
2023-10-06T00:14:20.246Z,4.35
2023-10-06T00:15:27.939Z,3.97
2023-10-06T00:16:40.465Z,4.07
2023-10-06T00:17:49.996Z,4.07
2023-10-06T00:18:54.165Z,3.75
2023-10-06T00:19:58.094Z,4.35
2023-10-06T00:21:08.467Z,4.10
2023-10-06T00:22:11.147Z,4.22
2023-10-06T00:23:16.115Z,4.03
2023-10-06T00:24:18.028Z,4.38
2023-10-06T00:26:30.873Z,4.00
2023-10-06T00:27:32.901Z,4.30
2023-10-06T00:29:38.264Z,4.53
2023-10-06T00:30:40.120Z,4.30
2023-10-06T00:32:44.158Z,3.80
2023-10-06T00:33:46.401Z,4.00
2023-10-06T00:34:50.035Z,4.13
2023-10-06T00:35:52.261Z,4.15
2023-10-06T00:36:54.085Z,3.72
2023-10-06T00:39:13.410Z,4.05
2023-10-06T00:40:21.672Z,4.60
2023-10-06T00:41:23.448Z,4.38
2023-10-06T00:43:40.919Z,4.40
2023-10-06T00:44:46.483Z,4.25
2023-10-06T00:45:49.378Z,4.78
2023-10-06T00:46:53.596Z,4.35
2023-10-06T00:47:55.465Z,4.50
2023-10-06T00:49:00.503Z,4.35
2023-10-06T00:50:06.866Z,4.10
2023-10-06T00:51:14.240Z,4.65
2023-10-06T00:52:16.794Z,4.35
2023-10-06T00:53:21.747Z,4.55
2023-10-06T00:54:26.462Z,4.50
2023-10-06T00:55:31.737Z,4.38
2023-10-06T00:56:34.910Z,4.10
2023-10-06T00:57:37.957Z,4.18
2023-10-06T00:58:42.325Z,3.70
2023-10-06T00:59:44.800Z,4.15
2023-10-06T01:00:46.662Z,4.32
2023-10-06T01:01:48.440Z,4.30
2023-10-06T01:02:53.047Z,3.97
2023-10-06T01:04:09.661Z,4.20
2023-10-06T01:05:11.786Z,4.30
2023-10-06T01:06:16.670Z,4.35
2023-10-06T01:07:19.039Z,4.80
2023-10-06T01:08:22.377Z,4.10
2023-10-06T01:09:34.919Z,4.10
2023-10-06T01:10:36.776Z,4.32
2023-10-06T01:11:47.893Z,4.32
2023-10-06T01:12:53.031Z,4.30
2023-10-06T01:13:55.128Z,4.47
2023-10-06T01:15:10.653Z,4.97
2023-10-06T01:16:17.230Z,6.72
2023-10-06T01:17:19.640Z,7.20
2023-10-06T01:18:28.464Z,14.30
2023-10-06T01:19:34.431Z,15.73
2023-10-06T01:20:42.828Z,10.30
2023-10-06T01:21:50.070Z,9.18
2023-10-06T01:22:57.323Z,8.38
2023-10-06T01:24:01.733Z,7.15
2023-10-06T01:25:12.142Z,6.60
2023-10-06T01:26:14.420Z,6.57
2023-10-06T01:27:20.023Z,6.18
2023-10-06T01:28:24.545Z,6.15
2023-10-06T01:29:30.714Z,6.57
2023-10-06T01:30:34.743Z,6.22
2023-10-06T01:31:40.982Z,6.80
2023-10-06T01:32:46.281Z,6.40
2023-10-06T01:33:50.654Z,5.65
2023-10-06T01:34:52.385Z,6.20
2023-10-06T01:35:54.461Z,6.13
2023-10-06T01:36:57.289Z,5.60
2023-10-06T01:38:00.390Z,5.57
2023-10-06T01:39:16.945Z,5.47
2023-10-06T01:40:23.474Z,5.93
2023-10-06T01:41:27.759Z,5.45
2023-10-06T01:42:31.912Z,5.30
2023-10-06T01:43:34.560Z,5.15
2023-10-06T01:44:38.856Z,5.40
2023-10-06T01:45:46.255Z,5.53
2023-10-06T01:46:54.429Z,5.05
2023-10-06T01:48:19.036Z,5.07
2023-10-06T01:49:24.590Z,5.25
2023-10-06T01:50:28.430Z,4.82
2023-10-06T01:51:37.015Z,5.10
2023-10-06T01:52:41.867Z,4.72
2023-10-06T01:53:44.013Z,4.80
2023-10-06T01:54:46.262Z,4.35
2023-10-06T01:55:50.486Z,4.07
2023-10-06T01:56:55.167Z,4.82
2023-10-06T01:57:58.237Z,4.78
2023-10-06T01:59:00.230Z,4.80
2023-10-06T02:00:02.529Z,4.78
2023-10-06T02:02:14.163Z,4.82
2023-10-06T02:03:22.651Z,4.65
2023-10-06T02:04:26.737Z,4.40
2023-10-06T02:05:28.970Z,4.47
2023-10-06T02:06:33.795Z,4.30
2023-10-06T02:07:36.995Z,4.28
2023-10-06T02:08:44.485Z,4.43
2023-10-06T02:09:46.253Z,4.53
2023-10-06T02:11:51.306Z,4.20
2023-10-06T02:12:53.425Z,4.63
2023-10-06T02:13:57.702Z,4.50
2023-10-06T02:14:59.823Z,4.40
2023-10-06T02:16:01.743Z,4.57
2023-10-06T02:17:07.537Z,4.20
2023-10-06T02:18:13.786Z,4.40
2023-10-06T02:19:18.915Z,4.68
2023-10-06T02:20:26.616Z,4.95
2023-10-06T02:21:30.649Z,4.38
2023-10-06T02:22:32.519Z,4.20
2023-10-06T02:24:40.716Z,4.13
2023-10-06T02:25:42.708Z,4.55
2023-10-06T02:27:00.546Z,4.18
2023-10-06T02:28:06.364Z,4.60
2023-10-06T02:29:13.539Z,4.30
2023-10-06T02:30:20.477Z,4.60
2023-10-06T02:31:23.248Z,4.30
2023-10-06T02:32:30.605Z,4.22
2023-10-06T02:33:37.486Z,4.38
2023-10-06T02:34:40.452Z,4.43
2023-10-06T02:35:47.745Z,4.35
2023-10-06T02:36:49.744Z,4.68
2023-10-06T02:38:53.562Z,3.92
2023-10-06T02:39:55.334Z,4.75
2023-10-06T02:42:08.776Z,4.93
2023-10-06T02:43:21.989Z,4.65
2023-10-06T02:44:25.865Z,4.95
2023-10-06T02:45:38.421Z,4.97
2023-10-06T02:46:45.391Z,4.25
2023-10-06T02:47:50.828Z,4.57
2023-10-06T02:48:52.934Z,4.30
2023-10-06T02:49:56.598Z,4.40
2023-10-06T02:50:58.406Z,4.70
2023-10-06T02:52:01.758Z,4.95
2023-10-06T02:53:08.386Z,4.53
2023-10-06T02:54:19.100Z,4.75
2023-10-06T02:55:21.716Z,5.22
2023-10-06T02:56:29.974Z,4.88
2023-10-06T02:57:40.132Z,4.30
2023-10-06T02:58:43.277Z,4.90
2023-10-06T02:59:45.938Z,4.38
2023-10-06T03:00:51.480Z,4.90
2023-10-06T03:01:59.142Z,5.07
2023-10-06T03:03:04.774Z,4.00
2023-10-06T03:04:08.999Z,4.85
2023-10-06T03:05:14.091Z,4.82
2023-10-06T03:06:20.519Z,4.78
2023-10-06T03:07:25.446Z,4.43
2023-10-06T03:08:31.342Z,4.60
2023-10-06T03:09:39.822Z,4.47
2023-10-06T03:10:49.809Z,4.35
2023-10-06T03:11:51.676Z,4.43
2023-10-06T03:12:54.668Z,4.43
2023-10-06T03:13:59.866Z,4.57
2023-10-06T03:15:02.494Z,4.60
2023-10-06T03:16:11.752Z,4.65
2023-10-06T03:17:14.946Z,4.75
2023-10-06T03:18:18.535Z,4.80
2023-10-06T03:19:26.818Z,4.60
2023-10-06T03:20:41.135Z,4.60
2023-10-06T03:21:46.953Z,5.00
2023-10-06T03:22:53.081Z,4.65
2023-10-06T03:23:59.239Z,4.70
2023-10-06T03:25:01.631Z,5.05
2023-10-06T03:26:13.632Z,5.50
2023-10-06T03:27:16.884Z,5.07
2023-10-06T03:28:19.514Z,5.25
2023-10-06T03:29:30.069Z,5.22
2023-10-06T03:30:37.957Z,5.00
2023-10-06T03:31:46.190Z,4.90
2023-10-06T03:32:53.260Z,4.55
2023-10-06T03:33:55.923Z,4.85
2023-10-06T03:35:13.199Z,4.78
2023-10-06T03:36:17.982Z,4.65
2023-10-06T03:37:35.849Z,4.43
2023-10-06T03:38:38.509Z,4.95
2023-10-06T03:39:51.856Z,4.55
2023-10-06T03:40:53.514Z,4.80
2023-10-06T03:43:07.870Z,4.53
2023-10-06T03:44:12.660Z,5.05
2023-10-06T03:45:28.208Z,4.78
2023-10-06T03:46:38.194Z,4.80
2023-10-06T03:47:40.145Z,4.93
2023-10-06T03:48:42.116Z,4.75
2023-10-06T03:49:44.094Z,4.60
2023-10-06T03:50:45.953Z,4.60
2023-10-06T03:51:52.752Z,5.00
2023-10-06T03:52:56.781Z,4.93
2023-10-06T03:55:02.689Z,5.13
2023-10-06T03:56:04.596Z,4.70
2023-10-06T03:57:06.308Z,4.95
2023-10-06T04:00:20.675Z,4.30
2023-10-06T04:01:27.585Z,4.57
2023-10-06T04:02:39.774Z,5.00
2023-10-06T04:03:41.743Z,5.00
2023-10-06T04:04:43.550Z,4.60
2023-10-06T04:06:49.012Z,4.70
2023-10-06T04:07:50.739Z,4.82
2023-10-06T04:09:55.540Z,4.82
2023-10-06T04:11:00.117Z,4.75
2023-10-06T04:12:05.407Z,4.78
2023-10-06T04:13:09.425Z,4.50
2023-10-06T04:14:14.881Z,5.10
2023-10-06T04:15:19.157Z,4.40
2023-10-06T04:16:23.620Z,5.05
2023-10-06T04:17:25.360Z,4.68
2023-10-06T04:19:28.806Z,5.00
2023-10-06T04:20:30.594Z,4.90
2023-10-06T04:21:32.373Z,5.10
2023-10-06T04:22:37.476Z,5.75
2023-10-06T04:23:42.726Z,5.30
2023-10-06T04:24:46.806Z,4.57
2023-10-06T04:25:48.671Z,5.30
2023-10-06T04:26:51.146Z,5.32
2023-10-06T04:27:53.335Z,5.53
2023-10-06T04:28:58.562Z,4.72
2023-10-06T04:30:00.446Z,5.82
2023-10-06T04:31:02.571Z,5.25
2023-10-06T04:32:09.187Z,5.07
2023-10-06T04:33:15.575Z,5.45
2023-10-06T04:34:17.252Z,4.95
2023-10-06T04:35:25.785Z,5.00
2023-10-06T04:36:28.590Z,5.40
2023-10-06T04:37:30.791Z,5.18
2023-10-06T04:38:32.854Z,5.97
2023-10-06T04:39:35.056Z,5.55
2023-10-06T04:40:40.267Z,4.55
2023-10-06T04:41:42.415Z,4.95
2023-10-06T04:42:44.284Z,5.13
2023-10-06T04:44:56.092Z,4.65
2023-10-06T04:45:58.092Z,4.72
2023-10-06T04:47:02.958Z,4.80
2023-10-06T04:48:10.160Z,4.90
2023-10-06T04:49:14.136Z,5.28
2023-10-06T04:50:17.308Z,5.53
2023-10-06T04:51:19.732Z,5.00
2023-10-06T04:52:21.442Z,5.10
2023-10-06T04:53:23.857Z,5.20
2023-10-06T04:54:25.478Z,4.80
2023-10-06T04:55:27.529Z,4.97
2023-10-06T04:56:33.539Z,5.03
2023-10-06T04:57:35.206Z,4.63
2023-10-06T04:59:42.068Z,4.68
2023-10-06T05:01:46.652Z,5.20
2023-10-06T05:02:51.857Z,4.93
2023-10-06T05:03:54.949Z,5.28
2023-10-06T05:04:57.396Z,5.10
2023-10-06T05:06:10.619Z,5.35
2023-10-06T05:07:12.247Z,5.15
2023-10-06T05:09:19.438Z,5.18
2023-10-06T05:10:26.977Z,5.10
2023-10-06T05:11:33.780Z,4.68
2023-10-06T05:12:38.271Z,5.10
2023-10-06T05:13:41.257Z,5.43
2023-10-06T05:14:46.973Z,5.03
2023-10-06T05:15:48.701Z,5.13
2023-10-06T05:17:57.499Z,5.22
2023-10-06T05:18:59.189Z,5.15
2023-10-06T05:20:01.850Z,4.95
2023-10-06T05:21:03.992Z,5.07
2023-10-06T05:22:05.676Z,5.22
2023-10-06T05:23:16.024Z,5.30
2023-10-06T05:24:17.942Z,5.03
2023-10-06T05:25:22.064Z,5.20
2023-10-06T05:26:25.967Z,4.97
2023-10-06T05:27:27.704Z,5.78
2023-10-06T05:29:32.969Z,5.40
2023-10-06T05:30:38.306Z,5.15
2023-10-06T05:31:40.226Z,5.47
2023-10-06T05:32:45.109Z,5.35
2023-10-06T05:33:47.181Z,5.47
2023-10-06T05:34:48.950Z,5.50
2023-10-06T05:36:57.321Z,7.22
2023-10-06T05:37:59.561Z,8.30
2023-10-06T05:39:01.288Z,8.05
2023-10-06T05:41:13.295Z,7.95
2023-10-06T05:42:17.198Z,7.40
2023-10-06T05:44:22.965Z,7.05
2023-10-06T05:45:24.900Z,7.68
2023-10-06T05:46:26.725Z,6.85
2023-10-06T05:48:31.879Z,6.40
2023-10-06T05:49:33.691Z,6.07
2023-10-06T05:51:40.075Z,5.90
2023-10-06T05:52:41.849Z,5.25
2023-10-06T05:53:45.623Z,5.78
2023-10-06T05:54:47.590Z,5.50
2023-10-06T05:56:54.579Z,5.40
2023-10-06T05:57:57.228Z,5.57
2023-10-06T05:58:58.965Z,4.90
2023-10-06T06:00:02.212Z,5.50
2023-10-06T06:01:07.749Z,5.53
2023-10-06T06:02:13.288Z,5.75
2023-10-06T06:03:17.666Z,6.15
2023-10-06T06:04:19.473Z,6.35
2023-10-06T06:05:22.181Z,5.70
2023-10-06T06:06:25.793Z,6.00
2023-10-06T06:07:28.301Z,5.72
2023-10-06T06:08:32.877Z,5.90
2023-10-06T06:09:34.971Z,5.80
2023-10-06T06:10:37.572Z,5.80
2023-10-06T06:11:39.417Z,5.95
2023-10-06T06:12:44.647Z,5.90
2023-10-06T06:13:52.768Z,5.25
2023-10-06T06:15:01.134Z,6.00
2023-10-06T06:16:03.740Z,5.63
2023-10-06T06:17:06.855Z,5.80
2023-10-06T06:18:10.175Z,5.78
2023-10-06T06:19:13.005Z,6.10
2023-10-06T06:20:18.512Z,6.68
2023-10-06T06:21:26.016Z,5.60
2023-10-06T06:22:30.967Z,6.15
2023-10-06T06:23:36.506Z,6.05
2023-10-06T06:24:39.427Z,5.28
2023-10-06T06:25:41.934Z,5.70
2023-10-06T06:26:44.615Z,5.90
2023-10-06T06:27:46.514Z,5.50
2023-10-06T06:28:48.407Z,6.13
2023-10-06T06:29:51.473Z,5.40
2023-10-06T06:30:55.690Z,5.43
2023-10-06T06:31:57.514Z,5.47
2023-10-06T06:32:59.165Z,5.20
2023-10-06T06:34:08.552Z,5.80
2023-10-06T06:35:14.918Z,5.22
2023-10-06T06:36:20.086Z,5.47
2023-10-06T06:37:22.040Z,5.10
2023-10-06T06:38:26.553Z,5.22
2023-10-06T06:39:28.722Z,5.50
2023-10-06T06:40:30.473Z,5.20
2023-10-06T06:42:34.345Z,5.05
2023-10-06T06:43:36.587Z,5.38
2023-10-06T06:44:38.419Z,5.90
2023-10-06T06:45:42.254Z,6.05
2023-10-06T06:46:44.318Z,5.35
2023-10-06T06:47:48.405Z,5.78
2023-10-06T06:48:50.193Z,6.03
2023-10-06T06:49:52.985Z,5.45
2023-10-06T06:50:54.658Z,5.50
2023-10-06T06:51:59.852Z,5.65
2023-10-06T06:53:01.685Z,5.60
2023-10-06T06:55:12.361Z,5.38
2023-10-06T06:56:14.372Z,5.85
2023-10-06T06:57:18.368Z,5.07
2023-10-06T06:58:20.038Z,5.93
2023-10-06T07:00:23.916Z,5.72
2023-10-06T07:01:25.600Z,5.38
2023-10-06T07:03:31.533Z,4.75
2023-10-06T07:04:35.486Z,5.63
2023-10-06T07:05:37.457Z,5.22
2023-10-06T07:06:39.140Z,5.75
2023-10-06T07:07:47.482Z,5.55
2023-10-06T07:08:51.442Z,5.78
2023-10-06T07:09:53.243Z,5.10
2023-10-06T07:10:55.077Z,5.70
2023-10-06T07:11:59.784Z,5.55
2023-10-06T07:14:06.200Z,5.60
2023-10-06T07:15:15.935Z,5.90
2023-10-06T07:17:24.175Z,5.50
2023-10-06T07:18:27.829Z,5.43
2023-10-06T07:19:30.197Z,6.03
2023-10-06T07:20:34.293Z,5.82
2023-10-06T07:21:36.056Z,5.32
2023-10-06T07:23:41.595Z,6.05
2023-10-06T07:25:44.868Z,5.47
2023-10-06T07:27:50.134Z,5.45
2023-10-06T07:28:53.490Z,4.93
2023-10-06T07:29:56.103Z,5.72
2023-10-06T07:30:57.900Z,6.07
2023-10-06T07:32:02.112Z,5.38
2023-10-06T07:33:07.348Z,5.63
2023-10-06T07:34:11.138Z,5.30
2023-10-06T07:35:19.930Z,5.60
2023-10-06T07:36:21.803Z,5.35
2023-10-06T07:37:24.100Z,5.90
2023-10-06T07:38:25.771Z,6.28
2023-10-06T07:39:33.016Z,5.78
2023-10-06T07:40:37.022Z,6.10
2023-10-06T07:41:38.752Z,8.50
2023-10-06T07:42:47.652Z,8.95
2023-10-06T07:43:49.592Z,8.73
2023-10-06T07:44:51.478Z,8.13
2023-10-06T07:45:55.095Z,8.27
2023-10-06T07:46:58.253Z,9.68
2023-10-06T07:49:05.726Z,7.95
2023-10-06T07:50:10.257Z,8.85
2023-10-06T07:51:14.469Z,8.07
2023-10-06T07:52:18.339Z,7.50
2023-10-06T07:53:20.142Z,6.40
2023-10-06T07:55:26.201Z,6.80
2023-10-06T07:57:32.359Z,5.60
2023-10-06T07:58:39.176Z,5.57
2023-10-06T07:59:40.901Z,6.38
2023-10-06T08:00:44.632Z,6.18
2023-10-06T08:01:49.615Z,6.15
2023-10-06T08:02:51.451Z,5.97
2023-10-06T08:04:57.026Z,5.75
2023-10-06T08:06:02.349Z,5.97
2023-10-06T08:07:04.121Z,5.82
2023-10-06T08:09:09.485Z,5.47
2023-10-06T08:10:19.713Z,5.50
2023-10-06T08:11:22.832Z,5.47
2023-10-06T08:12:24.820Z,6.30
2023-10-06T08:13:26.547Z,5.72
2023-10-06T08:15:33.851Z,5.40
2023-10-06T08:16:38.136Z,5.40
2023-10-06T08:17:40.366Z,5.38
2023-10-06T08:19:47.673Z,5.50
2023-10-06T08:20:49.754Z,5.40
2023-10-06T08:21:57.039Z,5.85
2023-10-06T08:22:58.796Z,5.65
2023-10-06T08:25:07.035Z,5.13
2023-10-06T08:26:14.912Z,5.60
2023-10-06T08:27:22.258Z,4.80
2023-10-06T08:28:25.597Z,5.47
2023-10-06T08:29:31.065Z,5.05
2023-10-06T08:30:35.818Z,5.32
2023-10-06T08:31:39.904Z,4.70
2023-10-06T08:32:41.680Z,5.20
2023-10-06T08:33:47.314Z,5.20
2023-10-06T08:34:49.256Z,4.90
2023-10-06T08:37:01.941Z,5.18
2023-10-06T08:38:03.939Z,5.40
2023-10-06T08:39:05.627Z,5.00
2023-10-06T08:40:09.035Z,4.90
2023-10-06T08:41:11.898Z,5.00
2023-10-06T08:42:16.667Z,5.05
2023-10-06T08:43:23.964Z,4.80
2023-10-06T08:44:26.046Z,5.18
2023-10-06T08:45:29.433Z,4.90
2023-10-06T08:46:36.196Z,5.47
2023-10-06T08:47:49.429Z,4.95
2023-10-06T08:48:57.359Z,5.13
2023-10-06T08:49:59.624Z,4.80
2023-10-06T08:51:08.163Z,5.20
2023-10-06T08:52:13.370Z,5.07
2023-10-06T08:53:16.460Z,5.18
2023-10-06T08:54:19.676Z,4.47
2023-10-06T08:55:23.694Z,4.60
2023-10-06T08:56:25.357Z,4.30
2023-10-06T08:57:30.316Z,4.95
2023-10-06T08:58:31.999Z,4.43
2023-10-06T09:00:38.132Z,4.78
2023-10-06T09:01:39.940Z,4.82
2023-10-06T09:04:10.640Z,4.65
2023-10-06T09:05:13.269Z,4.72
2023-10-06T09:06:17.326Z,4.65
2023-10-06T09:07:21.720Z,4.60
2023-10-06T09:08:23.563Z,4.47
2023-10-06T09:09:27.506Z,4.78
2023-10-06T09:10:32.026Z,4.30
2023-10-06T09:11:43.757Z,4.60
2023-10-06T09:12:47.157Z,4.70
2023-10-06T09:14:06.279Z,4.38
2023-10-06T09:15:16.088Z,4.22
2023-10-06T09:16:19.552Z,4.50
2023-10-06T09:17:41.862Z,4.60
2023-10-06T09:19:01.654Z,4.85
2023-10-06T09:20:13.425Z,4.57
2023-10-06T09:21:22.190Z,4.55
2023-10-06T09:23:34.360Z,5.28
2023-10-06T09:24:36.048Z,4.78
2023-10-06T09:26:50.160Z,4.68
2023-10-06T09:28:06.004Z,4.60
2023-10-06T09:29:11.176Z,4.85
2023-10-06T09:30:13.351Z,4.63
2023-10-06T09:31:15.077Z,4.90
2023-10-06T09:33:45.651Z,4.55
2023-10-06T09:34:54.744Z,5.03
2023-10-06T09:36:12.974Z,4.63
2023-10-06T09:37:21.734Z,4.85
2023-10-06T09:38:27.517Z,5.10
2023-10-06T09:39:33.943Z,4.95
2023-10-06T09:40:45.349Z,4.97
2023-10-06T09:41:49.089Z,4.45
2023-10-06T09:42:52.147Z,4.70
2023-10-06T09:43:54.831Z,4.78
2023-10-06T09:45:16.842Z,5.15
2023-10-06T09:46:20.075Z,4.35
2023-10-06T09:47:24.235Z,4.65
2023-10-06T09:48:35.101Z,4.10
2023-10-06T09:49:38.729Z,4.38
2023-10-06T09:50:44.098Z,4.43
2023-10-06T09:51:47.145Z,4.88
2023-10-06T09:52:52.445Z,4.30
2023-10-06T09:53:55.170Z,4.18
2023-10-06T09:54:59.040Z,4.40
2023-10-06T09:56:04.019Z,4.60
2023-10-06T09:57:06.716Z,4.80
2023-10-06T09:58:09.633Z,4.70
2023-10-06T09:59:15.079Z,4.80
2023-10-06T10:00:19.607Z,4.43
2023-10-06T10:01:27.084Z,4.88
2023-10-06T10:02:33.759Z,4.40
2023-10-06T10:03:38.882Z,4.95
2023-10-06T10:04:41.710Z,4.90
2023-10-06T10:05:44.297Z,4.72
2023-10-06T10:06:46.275Z,4.72
2023-10-06T10:07:51.718Z,5.15
2023-10-06T10:08:53.558Z,4.72
2023-10-06T10:11:03.172Z,5.32
2023-10-06T10:12:38.792Z,4.93
2023-10-06T10:14:19.858Z,4.47
2023-10-06T10:15:53.636Z,4.85
2023-10-06T10:17:08.289Z,4.18
2023-10-06T10:18:30.695Z,4.47
2023-10-06T10:19:32.900Z,4.60
2023-10-06T10:20:38.157Z,4.35
2023-10-06T10:21:43.001Z,4.85
2023-10-06T10:22:53.428Z,4.70
2023-10-06T10:24:18.650Z,4.25
2023-10-06T10:25:25.221Z,4.50
2023-10-06T10:26:28.671Z,4.43
2023-10-06T10:27:34.442Z,4.90
2023-10-06T10:28:38.860Z,4.50
2023-10-06T10:29:42.224Z,4.88
2023-10-06T10:31:01.405Z,4.50
2023-10-06T10:32:14.937Z,4.35
2023-10-06T10:33:31.021Z,4.63
2023-10-06T10:34:34.837Z,4.43
2023-10-06T10:35:36.879Z,4.63
2023-10-06T10:38:08.691Z,4.00
2023-10-06T10:39:17.691Z,4.38
2023-10-06T10:40:48.091Z,4.40
2023-10-06T10:41:59.452Z,4.53
2023-10-06T10:43:07.461Z,4.45
2023-10-06T10:44:22.739Z,4.60
2023-10-06T10:45:32.930Z,4.65
2023-10-06T10:46:43.063Z,4.28
2023-10-06T10:47:45.007Z,4.75
2023-10-06T10:48:49.791Z,4.72
2023-10-06T10:49:52.746Z,4.47
2023-10-06T10:50:55.379Z,4.88
2023-10-06T10:52:03.406Z,4.47
2023-10-06T10:53:05.567Z,4.57
2023-10-06T10:54:12.038Z,4.55
2023-10-06T10:55:14.222Z,4.25
2023-10-06T10:56:39.061Z,4.35
2023-10-06T10:57:45.831Z,4.45
2023-10-06T10:58:49.352Z,4.63
2023-10-06T11:00:09.174Z,4.43
2023-10-06T11:01:39.164Z,4.30
2023-10-06T11:02:50.904Z,4.50
2023-10-06T11:04:11.170Z,4.20
2023-10-06T11:05:19.667Z,4.13
2023-10-06T11:06:21.482Z,4.20
2023-10-06T11:08:25.358Z,4.10
2023-10-06T11:09:38.603Z,4.28
2023-10-06T11:10:42.892Z,4.10
2023-10-06T11:11:44.697Z,4.00
2023-10-06T11:14:03.939Z,4.18
2023-10-06T11:15:24.060Z,4.22
2023-10-06T11:16:25.721Z,4.00
2023-10-06T11:18:36.327Z,4.32
2023-10-06T11:19:39.381Z,4.28
2023-10-06T11:20:41.351Z,4.40
2023-10-06T11:21:50.097Z,4.28
2023-10-06T11:22:56.258Z,4.10
2023-10-06T11:23:59.420Z,3.75
2023-10-06T11:25:04.958Z,4.00
2023-10-06T11:26:07.500Z,3.97
2023-10-06T11:27:15.962Z,3.80
2023-10-06T11:28:17.818Z,3.90
2023-10-06T11:29:32.690Z,3.92
2023-10-06T11:30:37.078Z,3.78
2023-10-06T11:31:40.524Z,4.35
2023-10-06T11:32:45.566Z,4.22
2023-10-06T11:33:50.398Z,4.22
2023-10-06T11:34:52.505Z,3.97
2023-10-06T11:35:55.669Z,3.83
2023-10-06T11:37:03.152Z,3.90
2023-10-06T11:38:12.272Z,4.40
2023-10-06T11:39:14.234Z,3.97
2023-10-06T11:40:16.327Z,4.53
2023-10-06T11:41:28.614Z,3.90
2023-10-06T11:42:31.752Z,4.15
2023-10-06T11:43:33.410Z,3.85
2023-10-06T11:45:44.693Z,3.92
2023-10-06T11:46:51.107Z,4.20
2023-10-06T11:47:59.743Z,3.88
2023-10-06T11:49:11.199Z,4.32
2023-10-06T11:50:27.863Z,3.90
2023-10-06T11:51:29.610Z,4.50
2023-10-06T11:52:33.393Z,4.68
2023-10-06T11:54:40.281Z,3.85
2023-10-06T11:55:44.024Z,4.30
2023-10-06T11:57:55.944Z,3.83
2023-10-06T11:58:58.058Z,4.68
2023-10-06T11:59:59.736Z,4.10
2023-10-06T12:02:11.946Z,4.13
2023-10-06T12:03:45.662Z,4.03
2023-10-06T12:04:49.870Z,4.25
2023-10-06T12:06:59.969Z,4.00
2023-10-06T12:08:05.965Z,4.30
2023-10-06T12:09:14.584Z,4.60
2023-10-06T12:10:18.730Z,4.50
2023-10-06T12:11:20.863Z,4.30
2023-10-06T12:12:25.152Z,4.32
2023-10-06T12:13:26.806Z,4.45
2023-10-06T12:14:29.764Z,4.13
2023-10-06T12:15:31.559Z,4.10
2023-10-06T12:16:33.297Z,3.95
2023-10-06T12:17:39.838Z,4.10
2023-10-06T12:18:45.065Z,3.88
2023-10-06T12:19:49.126Z,4.20
2023-10-06T12:20:50.867Z,3.92
2023-10-06T12:22:57.131Z,4.65
2023-10-06T12:23:59.531Z,4.30
2023-10-06T12:25:01.720Z,4.18
2023-10-06T12:26:04.208Z,4.40
2023-10-06T12:27:06.045Z,4.47
2023-10-06T12:29:09.294Z,4.13
2023-10-06T12:30:15.004Z,4.35
2023-10-06T12:31:16.798Z,4.25
2023-10-06T12:32:20.821Z,4.88
2023-10-06T12:33:22.693Z,4.20
2023-10-06T12:34:28.816Z,4.70
2023-10-06T12:35:31.552Z,4.18
2023-10-06T12:36:33.343Z,4.55
2023-10-06T12:38:37.424Z,4.15
2023-10-06T12:39:39.210Z,4.22
2023-10-06T12:41:47.640Z,4.32
2023-10-06T12:42:49.713Z,4.03
2023-10-06T12:43:51.338Z,3.97
2023-10-06T12:45:54.653Z,4.05
2023-10-06T12:48:09.069Z,3.80
2023-10-06T12:49:11.191Z,4.45
2023-10-06T12:50:18.743Z,3.80
2023-10-06T12:51:20.778Z,4.15
2023-10-06T12:52:22.524Z,4.00
2023-10-06T12:54:26.982Z,3.60
2023-10-06T12:55:30.133Z,3.83
2023-10-06T12:56:32.669Z,3.80
2023-10-06T12:57:37.627Z,4.03
2023-10-06T12:58:39.639Z,4.05
2023-10-06T12:59:41.314Z,3.65
2023-10-06T13:01:50.216Z,3.80
2023-10-06T13:02:53.292Z,4.15
2023-10-06T13:03:55.342Z,4.20
2023-10-06T13:04:58.734Z,4.18
2023-10-06T13:06:04.443Z,3.75
2023-10-06T13:07:06.208Z,4.10
2023-10-06T13:08:11.070Z,3.88
2023-10-06T13:09:21.557Z,3.70
2023-10-06T13:10:25.740Z,3.80
2023-10-06T13:11:32.969Z,3.92
2023-10-06T13:12:40.744Z,3.45
2023-10-06T13:13:44.399Z,3.72
2023-10-06T13:14:46.100Z,3.60
2023-10-06T13:16:49.896Z,3.85
2023-10-06T13:17:51.885Z,3.80
2023-10-06T13:18:56.103Z,3.85
2023-10-06T13:20:59.619Z,3.80
2023-10-06T13:22:01.354Z,3.60
2023-10-06T13:23:06.284Z,3.97
2023-10-06T13:24:08.388Z,3.92
2023-10-06T13:25:12.062Z,3.53
2023-10-06T13:26:23.813Z,3.70
2023-10-06T13:27:33.439Z,4.00
2023-10-06T13:28:35.444Z,3.60
2023-10-06T13:29:38.802Z,3.95
2023-10-06T13:30:40.581Z,3.50
2023-10-06T13:34:14.367Z,4.00
2023-10-06T13:35:21.666Z,3.55
2023-10-06T13:36:24.024Z,3.70
2023-10-06T13:37:29.415Z,3.72
2023-10-06T13:38:35.933Z,3.95
2023-10-06T13:39:37.704Z,3.63
2023-10-06T13:40:39.476Z,4.18
2023-10-06T13:41:43.689Z,3.75
2023-10-06T13:42:47.653Z,3.70
2023-10-06T13:43:50.477Z,3.75
2023-10-06T13:44:52.387Z,3.45
2023-10-06T13:45:58.419Z,3.60
2023-10-06T13:47:06.687Z,3.38
2023-10-06T13:48:13.155Z,3.50
2023-10-06T13:49:15.557Z,3.60
2023-10-06T13:50:20.346Z,3.67
2023-10-06T13:51:24.141Z,3.50
2023-10-06T13:52:26.410Z,3.58
2023-10-06T13:53:28.957Z,3.95
2023-10-06T13:54:30.652Z,3.60
2023-10-06T13:56:36.443Z,3.60
2023-10-06T13:57:40.610Z,3.70
2023-10-06T13:58:42.349Z,3.70
2023-10-06T13:59:44.244Z,3.50
2023-10-06T14:02:20.012Z,3.70
2023-10-06T14:03:22.795Z,3.65
2023-10-06T14:04:25.117Z,3.88
2023-10-06T14:05:32.444Z,3.90
2023-10-06T14:06:34.364Z,3.70
2023-10-06T14:07:39.548Z,3.58
2023-10-06T14:08:41.213Z,3.75
2023-10-06T14:09:42.930Z,3.70
2023-10-06T14:11:51.302Z,3.78
2023-10-06T14:13:03.306Z,3.50
2023-10-06T14:14:24.253Z,3.88
2023-10-06T14:15:31.621Z,3.22
2023-10-06T14:16:34.208Z,3.80
2023-10-06T14:17:36.039Z,3.63
2023-10-06T14:18:41.406Z,4.18
2023-10-06T14:19:47.729Z,4.10
2023-10-06T14:20:53.616Z,3.78
2023-10-06T14:21:56.715Z,4.03
2023-10-06T14:23:00.661Z,3.80
2023-10-06T14:24:07.102Z,3.70
2023-10-06T14:25:11.937Z,3.85
2023-10-06T14:26:14.091Z,3.45
2023-10-06T14:27:19.296Z,4.03
2023-10-06T14:28:23.486Z,4.20
2023-10-06T14:29:25.264Z,4.10
2023-10-06T14:30:29.341Z,4.15
2023-10-06T14:31:38.547Z,4.00
2023-10-06T14:32:43.172Z,4.28
2023-10-06T14:33:58.980Z,3.85
2023-10-06T14:35:13.275Z,3.80
2023-10-06T14:36:15.911Z,3.72
2023-10-06T14:37:37.337Z,4.32
2023-10-06T14:38:44.719Z,3.60
2023-10-06T14:40:05.024Z,4.00
2023-10-06T14:41:27.859Z,3.75
2023-10-06T14:42:48.140Z,3.60
2023-10-06T14:44:13.807Z,3.58
2023-10-06T14:45:34.290Z,3.47
2023-10-06T14:46:40.932Z,3.60
2023-10-06T14:47:42.760Z,3.42
2023-10-06T14:48:44.785Z,3.55
2023-10-06T14:49:46.479Z,3.78
2023-10-06T14:51:59.518Z,3.83
2023-10-06T14:53:01.219Z,3.78
2023-10-06T14:55:11.019Z,3.40
2023-10-06T14:57:18.156Z,3.78
2023-10-06T14:58:20.992Z,3.90
2023-10-06T14:59:23.859Z,3.70
2023-10-06T15:00:28.116Z,4.20
2023-10-06T15:01:29.932Z,3.75
2023-10-06T15:02:32.735Z,4.07
2023-10-06T15:03:35.137Z,4.07
2023-10-06T15:04:39.868Z,3.78
2023-10-06T15:05:42.380Z,3.88
2023-10-06T15:06:45.221Z,3.70
2023-10-06T15:07:49.407Z,3.90
2023-10-06T15:08:52.363Z,3.67
2023-10-06T15:09:54.476Z,3.60
2023-10-06T15:10:58.575Z,3.85
2023-10-06T15:12:00.348Z,4.00
2023-10-06T15:13:02.093Z,3.75
2023-10-06T15:14:06.124Z,3.80
2023-10-06T15:15:14.508Z,3.88
2023-10-06T15:16:20.226Z,3.60
2023-10-06T15:17:23.425Z,3.42
2023-10-06T15:18:25.726Z,3.67
2023-10-06T15:19:35.850Z,3.60
2023-10-06T15:20:38.748Z,3.60
2023-10-06T15:21:40.708Z,3.50
2023-10-06T15:22:44.440Z,4.07
2023-10-06T15:23:52.111Z,3.88
2023-10-06T15:24:56.013Z,3.60
2023-10-06T15:27:10.489Z,3.83
2023-10-06T15:29:33.513Z,3.70
2023-10-06T15:30:41.705Z,3.28
2023-10-06T15:31:45.891Z,3.38
2023-10-06T15:32:47.809Z,3.60
2023-10-06T15:33:49.751Z,3.80
2023-10-06T15:35:55.879Z,3.55
2023-10-06T15:36:57.546Z,3.38
2023-10-06T15:39:09.880Z,3.25
2023-10-06T15:40:11.937Z,3.38
2023-10-06T15:41:16.652Z,3.53
2023-10-06T15:42:18.632Z,3.55
2023-10-06T15:43:23.920Z,3.70
2023-10-06T15:44:28.839Z,3.20
2023-10-06T15:45:30.788Z,3.10
2023-10-06T15:46:35.673Z,3.03
2023-10-06T15:47:38.076Z,3.42
2023-10-06T15:48:42.973Z,3.50
2023-10-06T15:49:45.018Z,3.53
2023-10-06T15:50:46.945Z,3.42
2023-10-06T15:51:49.388Z,3.47
2023-10-06T15:52:51.124Z,3.50
2023-10-06T15:54:54.782Z,3.60
2023-10-06T15:56:02.181Z,3.60
2023-10-06T15:57:04.457Z,3.30
2023-10-06T15:58:07.381Z,3.58
2023-10-06T15:59:16.360Z,3.13
2023-10-06T16:00:18.784Z,3.50
2023-10-06T16:02:25.093Z,3.55
2023-10-06T16:03:26.949Z,3.13